Time;durP1;ratioP1;P1;durP2;ratioP2;P2;SDS_P1;SDS_P2;PMS_P1;PMS_P2;Temp;Humidity;BMP_temperature;BMP_pressure;BME280_temperature;BME280_humidity;BME280_pressure;Samples;Min_cycle;Max_cycle;Signal;HPM_P1;HPM_P2
2022/01/20 00:00:18;;;;;;;79.75;35.50;;;4.80;51.80;;;;;;5017700;28;20025;-89
2022/01/20 00:02:55;;;;;;;92.43;36.50;;;4.40;51.80;;;;;;5034370;28;20029;-82
2022/01/20 00:06:37;;;;;;;78.78;35.90;;;4.30;52.00;;;;;;5016882;28;20021;-82
2022/01/20 00:27:11;;;;;;;85.45;35.78;;;4.70;53.40;;;;;;5033653;28;20040;-89
2022/01/20 00:30:08;;;;;;;78.60;35.25;;;4.80;53.20;;;;;;5016632;28;20415;-90
2022/01/20 00:37:28;;;;;;;80.57;36.55;;;4.40;56.60;;;;;;5033408;28;20021;-83
2022/01/20 00:39:55;;;;;;;89.28;38.35;;;4.60;56.40;;;;;;5015995;28;20021;-87
2022/01/20 00:42:21;;;;;;;175.38;71.80;;;5.00;55.50;;;;;;5016739;28;20036;-89
2022/01/20 00:44:47;;;;;;;119.93;49.83;;;5.00;55.70;;;;;;5016198;28;20018;-86
2022/01/20 00:47:14;;;;;;;88.55;39.60;;;5.10;55.80;;;;;;5016071;28;20035;-84
2022/01/20 00:49:41;;;;;;;78.82;35.47;;;5.40;54.50;;;;;;5016236;28;20021;-86
2022/01/20 00:52:07;;;;;;;72.88;31.45;;;5.50;53.50;;;;;;5016016;28;20044;-88
2022/01/20 00:54:34;;;;;;;66.53;30.55;;;5.60;53.90;;;;;;5033778;28;20041;-83
2022/01/20 00:56:59;;;;;;;70.10;32.90;;;5.60;53.40;;;;;;5016362;28;20029;-91
2022/01/20 00:59:27;;;;;;;65.88;31.50;;;5.80;53.10;;;;;;5033345;28;20029;-89
2022/01/20 01:01:53;;;;;;;71.45;32.85;;;5.90;53.00;;;;;;5016115;28;20048;-86
2022/01/20 01:04:19;;;;;;;67.57;31.38;;;5.90;51.30;;;;;;5016106;28;20021;-89
2022/01/20 01:09:11;;;;;;;62.80;29.90;;;5.70;51.90;;;;;;5034077;28;20341;-86
2022/01/20 01:11:39;;;;;;;61.13;27.52;;;5.60;52.60;;;;;;5016202;28;20435;-83
2022/01/20 01:14:05;;;;;;;62.22;27.98;;;5.20;52.40;;;;;;5016203;28;20029;-83
2022/01/20 01:20:04;;;;;;;60.95;27.20;;;4.80;53.80;;;;;;5016203;28;20476;-90
2022/01/20 01:24:41;;;;;;;58.78;27.20;;;5.60;54.50;;;;;;5037893;28;20479;-89
2022/01/20 01:27:09;;;;;;;60.33;26.27;;;5.70;55.00;;;;;;5037533;28;20026;-89
2022/01/20 01:32:24;;;;;;;65.88;28.20;;;5.90;54.50;;;;;;5037471;28;20111;-89
2022/01/20 01:34:52;;;;;;;;;;;6.00;53.30;;;;;;5020395;28;20415;-88
2022/01/20 01:39:58;;;;;;;64.15;29.52;;;5.60;54.40;;;;;;5037832;28;20033;-89
2022/01/20 01:42:31;;;;;;;64.53;28.75;;;5.60;54.80;;;;;;5019501;28;20037;-89
2022/01/20 01:45:09;;;;;;;60.42;27.92;;;5.70;54.60;;;;;;5019552;28;20030;-84
2022/01/20 01:47:35;;;;;;;57.10;26.27;;;6.00;54.70;;;;;;5015922;28;20067;-89
2022/01/20 01:50:01;;;;;;;64.65;28.75;;;6.20;53.80;;;;;;5020025;28;20022;-89
2022/01/20 01:52:26;;;;;;;60.03;26.75;;;6.00;54.30;;;;;;5019005;28;20040;-89
2022/01/20 01:54:52;;;;;;;61.63;26.58;;;6.20;54.20;;;;;;5019539;28;20045;-90
2022/01/20 01:57:18;;;;;;;50.72;25.55;;;6.50;53.30;;;;;;5019196;28;20124;-89
2022/01/20 01:59:44;;;;;;;55.17;24.40;;;6.70;52.60;;;;;;5019251;28;20022;-88
2022/01/20 02:02:10;;;;;;;60.80;28.08;;;6.90;52.30;;;;;;5019154;28;20134;-85
2022/01/20 02:04:36;;;;;;;61.58;26.90;;;6.00;54.30;;;;;;5019313;28;20032;-84
2022/01/20 02:20:25;;;;;;;60.33;24.38;;;4.70;56.70;;;;;;5037294;28;20021;-82
2022/01/20 02:22:51;;;;;;;50.70;23.13;;;4.20;57.60;;;;;;5018561;28;20064;-82
2022/01/20 02:25:30;;;;;;;56.35;25.42;;;3.80;58.50;;;;;;5036807;28;20021;-90
2022/01/20 02:27:57;;;;;;;62.53;27.05;;;4.20;57.80;;;;;;5031013;28;20071;-83
2022/01/20 02:30:26;;;;;;;57.25;27.70;;;3.80;58.80;;;;;;5018154;28;20018;-88
2022/01/20 02:33:03;;;;;;;67.78;28.15;;;3.00;62.10;;;;;;5035967;28;20068;-89
2022/01/20 02:35:34;;;;;;;60.88;27.02;;;2.60;62.70;;;;;;5036282;28;20018;-90
2022/01/20 02:38:08;;;;;;;62.05;27.08;;;2.40;63.50;;;;;;5018384;28;20017;-87
2022/01/20 02:45:50;;;;;;;57.92;27.33;;;3.60;62.10;;;;;;5031169;28;20120;-89
2022/01/20 02:48:16;;;;;;;65.40;28.20;;;3.90;59.40;;;;;;5018582;28;20535;-85
2022/01/20 02:50:42;;;;;;;64.55;28.58;;;4.20;58.40;;;;;;5036103;28;20021;-89
2022/01/20 02:53:08;;;;;;;64.88;28.63;;;4.70;56.90;;;;;;5018341;28;20111;-82
2022/01/20 02:55:33;;;;;;;58.30;27.40;;;5.20;56.20;;;;;;5035366;28;20048;-81
2022/01/20 02:57:59;;;;;;;64.78;27.95;;;5.20;55.40;;;;;;5018114;28;20030;-89
2022/01/20 03:00:25;;;;;;;64.75;29.13;;;5.40;55.20;;;;;;5017858;28;20025;-82
2022/01/20 03:02:51;;;;;;;66.53;28.65;;;5.50;54.60;;;;;;5018527;28;20025;-86
2022/01/20 03:05:16;;;;;;;58.85;27.35;;;5.30;55.20;;;;;;5018669;28;20025;-87
2022/01/20 03:07:43;;;;;;;53.55;25.10;;;5.10;54.30;;;;;;5017728;28;20029;-88
2022/01/20 03:10:09;;;;;;;57.15;26.60;;;4.60;55.00;;;;;;5018316;28;20025;-82
2022/01/20 03:12:35;;;;;;;55.28;24.42;;;4.30;57.10;;;;;;5018124;28;20503;-83
2022/01/20 03:15:01;;;;;;;54.58;26.25;;;4.40;55.70;;;;;;5017612;28;20049;-85
2022/01/20 03:17:32;;;;;;;56.47;24.67;;;4.30;55.60;;;;;;5018026;28;20021;-88
2022/01/20 03:19:58;;;;;;;62.15;27.13;;;4.40;55.30;;;;;;5018055;28;20025;-83
2022/01/20 03:22:24;;;;;;;58.78;27.52;;;4.20;56.60;;;;;;5017729;28;20029;-83
2022/01/20 03:24:50;;;;;;;54.20;25.60;;;4.60;55.70;;;;;;5017659;28;20070;-88
2022/01/20 03:27:16;;;;;;;59.05;28.00;;;4.60;54.80;;;;;;5017432;28;20032;-84
2022/01/20 03:29:41;;;;;;;61.80;26.38;;;4.80;54.40;;;;;;5017393;28;20018;-83
2022/01/20 03:32:08;;;;;;;58.38;27.48;;;4.80;53.80;;;;;;5018083;28;20401;-85
2022/01/20 03:34:33;;;;;;;62.60;27.88;;;5.00;54.10;;;;;;5017062;28;20032;-86
2022/01/20 03:37:03;;;;;;;58.20;25.50;;;5.00;53.80;;;;;;5017456;28;20025;-83
2022/01/20 03:39:30;;;;;;;65.47;28.05;;;5.00;54.50;;;;;;5017718;28;20029;-83
2022/01/20 03:41:55;;;;;;;52.60;26.60;;;5.10;54.10;;;;;;5034719;28;20372;-86
2022/01/20 03:44:21;;;;;;;60.00;28.48;;;5.30;53.30;;;;;;5017493;28;20029;-88
2022/01/20 03:46:47;;;;;;;55.75;26.95;;;5.20;53.30;;;;;;5017068;28;20025;-87
2022/01/20 03:49:26;;;;;;;58.70;27.13;;;5.20;53.20;;;;;;5017682;28;20087;-84
2022/01/20 03:51:53;;;;;;;63.17;29.75;;;5.20;53.40;;;;;;5016988;28;20025;-88
2022/01/20 03:54:19;;;;;;;87.32;37.03;;;5.20;53.90;;;;;;5017396;28;20193;-83
2022/01/20 03:56:45;;;;;;;93.22;39.00;;;5.10;54.00;;;;;;5017398;28;20123;-87
2022/01/20 03:59:11;;;;;;;87.82;36.83;;;5.20;53.90;;;;;;5016857;28;20083;-86
2022/01/20 04:01:36;;;;;;;81.70;33.20;;;5.30;54.50;;;;;;5016917;28;20529;-89
2022/01/20 04:04:02;;;;;;;109.88;42.75;;;5.30;54.50;;;;;;5017270;28;20025;-88
2022/01/20 04:06:28;;;;;;;84.47;36.95;;;5.10;55.60;;;;;;5017158;28;20029;-83
2022/01/20 04:09:43;;;;;;;69.93;31.42;;;5.10;54.90;;;;;;5034113;28;20014;-87
2022/01/20 04:12:08;;;;;;;68.68;29.27;;;5.00;54.00;;;;;;4897504;29;20525;-83
2022/01/20 04:14:36;;;;;;;57.40;27.35;;;4.90;53.90;;;;;;4892371;29;20028;-87
2022/01/20 04:17:04;;;;;;;68.28;30.35;;;5.00;53.40;;;;;;4888237;29;20052;-88
2022/01/20 04:19:32;;;;;;;81.93;35.58;;;4.70;55.20;;;;;;4882190;29;20025;-86
2022/01/20 04:22:00;;;;;;;60.63;27.70;;;4.80;55.60;;;;;;4900577;29;20028;-86
2022/01/20 04:24:26;;;;;;;82.00;32.47;;;4.90;54.50;;;;;;4901249;29;20028;-87
2022/01/20 04:26:52;;;;;;;69.95;30.42;;;4.90;54.30;;;;;;4908154;29;20075;-87
2022/01/20 04:29:17;;;;;;;61.17;26.30;;;4.70;53.40;;;;;;4900080;29;20039;-84
2022/01/20 04:31:45;;;;;;;61.15;26.77;;;4.40;53.90;;;;;;4884122;29;20028;-83
2022/01/20 04:34:11;;;;;;;52.22;25.23;;;4.20;55.50;;;;;;4909892;29;20028;-84
2022/01/20 04:36:40;;;;;;;54.63;24.38;;;4.30;55.50;;;;;;4892334;29;20044;-86
2022/01/20 04:39:20;;;;;;;59.65;25.85;;;4.30;54.30;;;;;;4885358;29;20163;-87
2022/01/20 04:41:46;;;;;;;62.13;25.80;;;4.20;54.10;;;;;;4891164;29;20069;-86
2022/01/20 04:57:58;;;;;;;53.30;27.75;;;4.30;56.30;;;;;;5020789;28;20032;-85
2022/01/20 05:00:24;;;;;;;52.75;24.98;;;3.90;57.60;;;;;;5015716;28;20021;-84
2022/01/20 05:02:49;;;;;;;62.03;28.40;;;3.80;57.80;;;;;;5016083;28;20029;-84
2022/01/20 05:05:15;;;;;;;54.80;28.25;;;3.70;58.10;;;;;;5016276;28;20025;-84
2022/01/20 05:07:41;;;;;;;75.00;27.27;;;3.90;57.60;;;;;;5015898;28;20036;-85
2022/01/20 05:10:11;;;;;;;47.33;22.60;;;3.90;57.00;;;;;;5015610;28;20056;-84
2022/01/20 05:17:13;;;;;;;53.55;23.40;;;4.00;57.90;;;;;;4893802;29;20207;-83
2022/01/20 05:34:15;;;;;;;60.60;26.42;;;4.50;58.40;;;;;;4786905;30;20180;-89
2022/01/20 05:49:03;;;;;;;91.07;41.92;;;4.60;60.90;;;;;;5122378;23;20050;-85
2022/01/20 05:57:10;;;;;;;64.43;29.15;;;5.50;59.30;;;;;;5072919;23;20044;-83
2022/01/20 06:40:37;;;;;;;87.18;38.15;;;6.30;58.40;;;;;;1017386;23;20447;-83
2022/01/20 06:43:40;;;;;;;89.85;38.13;;;6.30;59.00;;;;;;4628379;28;10001504;-83
2022/01/20 06:46:06;;;;;;;94.70;41.70;;;6.50;58.90;;;;;;4959651;28;20027;-85
2022/01/20 06:48:32;;;;;;;78.18;34.03;;;6.90;57.90;;;;;;4976346;28;20031;-81
2022/01/20 06:50:57;;;;;;;84.30;42.92;;;6.90;58.20;;;;;;4975762;28;20031;-84
2022/01/20 06:53:23;;;;;;;85.97;41.53;;;7.00;58.10;;;;;;4976076;28;20050;-81
2022/01/20 06:55:49;;;;;;;83.75;41.08;;;7.10;58.40;;;;;;4976219;28;20026;-85
2022/01/20 06:58:15;;;;;;;69.63;36.58;;;7.30;57.80;;;;;;4989773;28;20425;-81
2022/01/20 07:00:40;;;;;;;97.70;42.65;;;7.40;56.90;;;;;;4995552;28;20050;-83
2022/01/20 07:03:06;;;;;;;95.97;43.92;;;7.50;57.00;;;;;;4995715;28;20031;-82
2022/01/20 07:05:32;;;;;;;98.32;45.00;;;7.00;57.30;;;;;;4967215;28;20023;-81
2022/01/20 07:07:57;;;;;;;98.50;45.78;;;6.50;58.80;;;;;;4957566;29;20042;-86
2022/01/20 07:10:23;;;;;;;87.90;43.65;;;6.40;59.30;;;;;;4956521;29;20027;-82
2022/01/20 07:12:50;;;;;;;105.53;50.80;;;6.30;58.70;;;;;;4956048;29;20051;-86
2022/01/20 07:15:17;;;;;;;114.72;56.00;;;6.40;59.10;;;;;;4957650;29;20019;-82
2022/01/20 07:17:43;;;;;;;111.47;53.10;;;6.90;58.20;;;;;;4955460;28;20054;-81
2022/01/20 07:20:10;;;;;;;88.00;39.80;;;7.50;56.80;;;;;;4956111;29;20034;-88
2022/01/20 07:22:36;;;;;;;87.32;41.80;;;7.90;55.80;;;;;;4955802;29;20035;-85
2022/01/20 07:25:03;;;;;;;84.60;42.47;;;8.00;55.00;;;;;;4957146;29;20028;-86
2022/01/20 07:27:28;;;;;;;89.80;42.40;;;8.00;54.40;;;;;;4955723;29;20038;-88
2022/01/20 07:29:54;;;;;;;117.50;49.28;;;7.50;55.30;;;;;;4957031;29;20023;-81
2022/01/20 07:32:20;;;;;;;98.38;44.35;;;7.30;56.10;;;;;;4956898;29;20043;-88
2022/01/20 07:34:45;;;;;;;74.25;35.95;;;7.10;56.40;;;;;;4955537;29;20386;-86
2022/01/20 07:37:11;;;;;;;69.40;33.40;;;7.30;55.80;;;;;;4955837;29;20038;-84
2022/01/20 07:39:37;;;;;;;74.20;34.10;;;7.50;55.40;;;;;;4955746;29;20023;-79
2022/01/20 07:42:03;;;;;;;88.68;39.42;;;7.40;55.60;;;;;;4956799;29;20053;-86
2022/01/20 07:44:29;;;;;;;89.60;39.53;;;6.70;56.60;;;;;;4955564;29;20522;-87
2022/01/20 07:46:54;;;;;;;83.68;37.35;;;6.60;57.00;;;;;;4956286;29;20031;-80
2022/01/20 07:49:20;;;;;;;78.05;37.85;;;6.40;57.80;;;;;;4955417;29;20069;-85
2022/01/20 07:51:46;;;;;;;77.07;35.60;;;6.60;57.80;;;;;;4955183;29;20521;-80
2022/01/20 07:54:11;;;;;;;84.43;37.47;;;6.90;56.90;;;;;;4956686;29;20046;-86
2022/01/20 07:56:37;;;;;;;76.95;34.97;;;7.10;56.50;;;;;;4955411;29;20034;-79
2022/01/20 07:59:03;;;;;;;65.90;33.22;;;7.30;56.20;;;;;;4956768;29;20038;-86
2022/01/20 08:01:29;;;;;;;67.90;35.90;;;7.50;55.70;;;;;;4955426;29;20026;-86
2022/01/20 08:03:55;;;;;;;79.00;39.00;;;7.50;55.50;;;;;;4955212;29;20031;-80
2022/01/20 08:06:22;;;;;;;69.00;34.67;;;7.50;55.30;;;;;;4955336;29;20023;-80
2022/01/20 08:08:50;;;;;;;70.10;34.08;;;7.00;56.20;;;;;;4955045;29;20030;-84
2022/01/20 08:11:19;;;;;;;72.07;34.58;;;6.60;57.10;;;;;;4955209;29;20019;-83
2022/01/20 08:13:45;;;;;;;80.07;37.00;;;6.60;57.00;;;;;;4955036;29;20430;-84
2022/01/20 08:16:11;;;;;;;71.57;35.92;;;6.50;57.70;;;;;;4954970;29;20466;-84
2022/01/20 08:18:36;;;;;;;71.65;34.15;;;6.80;57.10;;;;;;4954767;29;20394;-79
2022/01/20 08:21:02;;;;;;;68.85;34.58;;;6.90;57.10;;;;;;4954907;29;20122;-86
2022/01/20 08:23:28;;;;;;;85.07;38.40;;;7.00;56.60;;;;;;4954786;29;20240;-82
2022/01/20 08:25:55;;;;;;;71.28;33.40;;;7.30;56.60;;;;;;4955709;29;20427;-80
2022/01/20 08:28:22;;;;;;;73.82;34.55;;;7.30;56.00;;;;;;4970139;28;20167;-83
2022/01/20 08:30:49;;;;;;;70.65;35.40;;;7.20;56.20;;;;;;4970315;28;20035;-83
2022/01/20 08:33:14;;;;;;;71.18;33.97;;;7.30;56.10;;;;;;4955944;29;20028;-86
2022/01/20 08:35:40;;;;;;;73.53;34.53;;;7.50;56.10;;;;;;4955836;29;20074;-87
2022/01/20 08:38:07;;;;;;;66.35;33.08;;;7.30;56.80;;;;;;3930847;28;10000718;-78
2022/01/20 08:40:35;;;;;;;73.60;37.83;;;7.20;56.90;;;;;;4969643;28;20056;-79
2022/01/20 08:43:01;;;;;;;78.15;39.42;;;7.30;56.50;;;;;;4973396;28;20046;-84
2022/01/20 08:45:30;;;;;;;71.20;36.17;;;7.40;56.40;;;;;;4973973;28;20034;-86
2022/01/20 08:47:57;;;;;;;80.18;37.92;;;7.60;55.60;;;;;;4974836;28;20051;-86
2022/01/20 08:50:28;;;;;;;85.60;38.47;;;7.20;56.90;;;;;;4973842;28;20046;-81
2022/01/20 08:52:55;;;;;;;81.90;39.42;;;7.40;56.70;;;;;;4973731;28;20497;-79
2022/01/20 08:55:21;;;;;;;83.65;39.10;;;7.50;56.40;;;;;;4974853;28;20069;-86
2022/01/20 08:57:47;;;;;;;75.43;35.95;;;7.20;56.80;;;;;;4973524;28;20042;-79
2022/01/20 09:00:14;;;;;;;77.97;36.08;;;7.00;57.30;;;;;;4973215;28;20038;-79
2022/01/20 09:02:40;;;;;;;68.03;32.88;;;6.70;58.60;;;;;;4974720;28;20171;-86
2022/01/20 09:05:06;;;;;;;76.18;37.97;;;7.00;57.70;;;;;;4973103;28;20135;-87
2022/01/20 09:07:32;;;;;;;84.20;40.25;;;7.00;57.90;;;;;;4974537;28;20034;-83
2022/01/20 09:10:00;;;;;;;72.75;34.80;;;7.00;58.40;;;;;;4973249;28;20034;-85
2022/01/20 09:17:44;;;;;;;27.30;14.35;;;6.70;63.90;;;;;;4975067;28;20402;-79
2022/01/20 09:20:10;;;;;;;25.77;13.52;;;6.50;65.70;;;;;;4974927;28;20467;-84
2022/01/20 09:22:37;;;;;;;25.75;14.80;;;6.20;66.90;;;;;;4973539;28;20465;-89
2022/01/20 09:25:04;;;;;;;26.48;13.52;;;6.30;67.60;;;;;;4973409;28;20027;-86
2022/01/20 09:27:30;;;;;;;28.02;15.02;;;6.50;67.20;;;;;;4973575;28;20389;-84
2022/01/20 09:29:55;;;;;;;26.65;14.27;;;6.70;67.10;;;;;;4973489;28;20027;-90
2022/01/20 09:32:23;;;;;;;36.63;17.50;;;6.50;67.60;;;;;;4972983;28;20038;-84
2022/01/20 09:34:49;;;;;;;35.40;19.67;;;6.60;68.50;;;;;;4974603;28;20019;-85
2022/01/20 09:37:15;;;;;;;40.65;24.45;;;7.00;67.10;;;;;;4973162;28;20038;-82
2022/01/20 09:39:40;;;;;;;47.92;31.52;;;6.80;67.90;;;;;;4974434;28;20481;-77
2022/01/20 09:42:07;;;;;;;34.28;20.73;;;6.80;68.40;;;;;;4976407;28;20130;-78
2022/01/20 09:44:34;;;;;;;29.48;17.00;;;7.30;67.00;;;;;;4978053;28;20031;-81
2022/01/20 09:46:59;;;;;;;34.92;18.73;;;7.60;66.80;;;;;;4976816;28;20100;-79
2022/01/20 09:49:25;;;;;;;29.55;15.73;;;7.80;65.80;;;;;;4977692;28;20376;-79
2022/01/20 09:51:51;;;;;;;22.55;14.05;;;7.70;66.10;;;;;;4977916;28;20085;-78
2022/01/20 09:54:18;;;;;;;26.88;14.57;;;7.90;65.70;;;;;;4977828;28;20029;-87
2022/01/20 09:56:44;;;;;;;28.35;13.45;;;8.20;65.10;;;;;;4976424;28;20118;-83
2022/01/20 09:59:14;;;;;;;21.20;12.77;;;7.80;66.00;;;;;;4977803;28;20063;-80
2022/01/20 10:01:42;;;;;;;19.67;12.55;;;8.00;66.20;;;;;;4977492;28;20150;-78
2022/01/20 10:04:24;;;;;;;20.83;12.30;;;8.30;65.00;;;;;;4976255;28;20470;-78
2022/01/20 10:07:02;;;;;;;21.27;12.13;;;8.20;64.90;;;;;;4974413;28;20438;-84
2022/01/20 10:09:29;;;;;;;19.17;11.68;;;8.10;65.00;;;;;;4976006;28;20037;-84
2022/01/20 10:11:55;;;;;;;27.30;14.75;;;8.00;65.30;;;;;;4976061;28;20103;-78
2022/01/20 10:14:21;;;;;;;33.15;18.80;;;8.20;65.00;;;;;;4975994;28;20045;-79
2022/01/20 10:16:47;;;;;;;42.00;20.30;;;8.40;64.10;;;;;;4976031;28;20027;-84
2022/01/20 10:19:22;;;;;;;25.83;13.88;;;7.90;65.10;;;;;;4977504;28;20053;-77
2022/01/20 10:21:48;;;;;;;22.13;12.85;;;7.60;65.90;;;;;;4976002;28;20082;-77
2022/01/20 10:24:17;;;;;;;27.38;15.90;;;7.80;66.00;;;;;;4977273;28;20034;-78
2022/01/20 10:26:43;;;;;;;30.40;16.40;;;7.90;65.90;;;;;;4977181;28;20015;-78
2022/01/20 10:29:12;;;;;;;22.13;13.25;;;7.80;66.20;;;;;;4977154;28;20026;-81
2022/01/20 10:31:52;;;;;;;23.58;13.15;;;7.80;66.30;;;;;;4975985;28;20045;-84
2022/01/20 10:34:33;;;;;;;22.92;12.93;;;8.00;66.20;;;;;;4975849;28;20121;-81
2022/01/20 10:37:12;;;;;;;17.73;10.40;;;8.00;66.10;;;;;;4975896;28;20022;-79
2022/01/20 10:39:42;;;;;;;18.45;10.45;;;8.10;66.10;;;;;;4975947;28;20023;-81
2022/01/20 10:42:11;;;;;;;16.65;10.40;;;8.00;66.70;;;;;;4977443;28;20623;-79
2022/01/20 10:44:48;;;;;;;18.73;11.65;;;8.30;66.20;;;;;;4975525;28;20027;-81
2022/01/20 10:47:28;;;;;;;14.32;8.73;;;8.50;65.30;;;;;;4975341;28;20031;-87
2022/01/20 10:49:55;;;;;;;19.77;13.15;;;8.30;65.20;;;;;;4975557;28;20027;-80
2022/01/20 10:52:23;;;;;;;17.63;9.80;;;8.70;65.50;;;;;;4958929;28;20538;-79
2022/01/20 10:54:53;;;;;;;20.50;13.02;;;8.90;63.90;;;;;;4975777;28;20042;-78
2022/01/20 10:57:33;;;;;;;19.23;11.48;;;8.80;64.50;;;;;;4977187;28;20027;-90
2022/01/20 11:00:03;;;;;;;19.50;13.30;;;9.00;63.90;;;;;;4976777;28;20490;-91
2022/01/20 11:02:30;;;;;;;18.02;9.07;;;9.40;63.10;;;;;;4976064;28;20030;-80
2022/01/20 11:04:57;;;;;;;12.82;7.97;;;9.70;61.60;;;;;;4976592;28;20474;-90
2022/01/20 11:07:23;;;;;;;12.23;7.35;;;9.90;61.60;;;;;;4976251;28;20030;-79
2022/01/20 11:09:56;;;;;;;11.32;6.97;;;10.10;60.70;;;;;;4976859;28;20019;-88
2022/01/20 11:12:22;;;;;;;13.30;7.32;;;10.20;60.10;;;;;;4976758;28;20042;-88
2022/01/20 11:14:51;;;;;;;10.75;6.70;;;10.00;60.00;;;;;;4976112;28;20390;-79
2022/01/20 11:17:25;;;;;;;10.05;6.22;;;9.80;60.80;;;;;;4976170;28;20031;-78
2022/01/20 11:19:52;;;;;;;13.82;7.38;;;9.80;60.80;;;;;;4975718;28;20031;-92
2022/01/20 11:22:20;;;;;;;12.10;7.07;;;9.90;60.40;;;;;;4977004;28;20027;-79
2022/01/20 11:24:58;;;;;;;14.82;9.68;;;9.60;61.00;;;;;;4977131;28;20438;-85
2022/01/20 11:27:35;;;;;;;13.05;7.80;;;9.60;61.20;;;;;;4976382;28;20037;-79
2022/01/20 11:30:11;;;;;;;10.27;6.47;;;9.80;60.00;;;;;;4975994;28;20031;-90
2022/01/20 11:32:37;;;;;;;13.13;7.25;;;9.60;60.40;;;;;;4979042;28;20070;-79
2022/01/20 11:35:06;;;;;;;10.75;7.13;;;10.00;60.60;;;;;;4978115;28;20051;-80
2022/01/20 11:37:35;;;;;;;10.57;6.68;;;10.30;59.40;;;;;;4978060;28;20027;-79
2022/01/20 11:40:20;;;;;;;11.48;7.35;;;10.20;58.60;;;;;;4979513;28;20031;-79
2022/01/20 11:43:11;;;;;;;13.10;7.15;;;10.20;59.10;;;;;;4979220;28;20070;-84
2022/01/20 11:45:46;;;;;;;12.27;7.20;;;9.90;59.50;;;;;;4980286;28;20047;-80
2022/01/20 11:48:11;;;;;;;11.40;6.35;;;9.70;59.50;;;;;;4978476;28;20569;-86
2022/01/20 11:50:37;;;;;;;10.48;6.72;;;9.50;59.90;;;;;;4979325;28;20030;-80
2022/01/20 11:53:14;;;;;;;12.00;7.18;;;9.40;60.60;;;;;;4981888;28;20046;-78
2022/01/20 11:55:53;;;;;;;12.68;6.80;;;9.30;61.00;;;;;;4980989;28;20030;-78
2022/01/20 11:58:22;;;;;;;11.30;6.97;;;9.40;60.00;;;;;;4980237;28;20548;-78
2022/01/20 12:01:09;;;;;;;12.57;6.70;;;9.50;60.00;;;;;;4976431;28;20388;-80
2022/01/20 12:03:48;;;;;;;10.27;6.03;;;9.30;60.20;;;;;;4978655;28;20059;-78
2022/01/20 12:06:19;;;;;;;13.30;7.63;;;9.40;60.10;;;;;;4979887;28;20031;-80
2022/01/20 12:09:01;;;;;;;16.90;10.10;;;9.40;60.50;;;;;;4983114;28;20473;-80
2022/01/20 12:11:39;;;;;;;12.13;7.20;;;10.00;59.20;;;;;;4981740;28;20081;-92
2022/01/20 12:14:06;;;;;;;11.52;6.30;;;10.00;59.10;;;;;;4981084;28;20082;-82
2022/01/20 12:16:33;;;;;;;15.50;8.45;;;9.70;59.00;;;;;;4979430;28;20022;-79
2022/01/20 12:19:00;;;;;;;11.07;6.97;;;9.70;59.60;;;;;;4980582;28;20050;-81
2022/01/20 12:21:28;;;;;;;10.68;6.68;;;9.90;58.50;;;;;;4980594;28;20026;-79
2022/01/20 12:23:54;;;;;;;13.23;6.70;;;10.20;58.10;;;;;;4976940;28;20045;-79
2022/01/20 12:26:20;;;;;;;11.48;7.43;;;10.10;57.30;;;;;;4976868;28;20093;-80
2022/01/20 12:28:47;;;;;;;23.02;11.48;;;9.90;58.60;;;;;;4975005;28;20023;-87
2022/01/20 12:31:13;;;;;;;15.95;9.55;;;10.00;58.00;;;;;;4976863;28;20077;-79
2022/01/20 12:33:45;;;;;;;12.15;8.05;;;10.00;58.30;;;;;;4975572;28;20043;-79
2022/01/20 12:36:16;;;;;;;13.27;9.18;;;10.20;58.00;;;;;;4977602;28;20026;-79
2022/01/20 12:38:45;;;;;;;12.63;7.28;;;10.70;57.30;;;;;;4977521;28;20477;-91
2022/01/20 12:41:19;;;;;;;12.75;7.22;;;11.00;56.20;;;;;;4978008;28;20039;-92
2022/01/20 12:44:15;;;;;;;12.32;6.97;;;11.00;55.90;;;;;;4983549;28;20025;-87
2022/01/20 12:46:41;;;;;;;11.18;6.93;;;11.10;56.00;;;;;;4978209;28;20037;-78
2022/01/20 12:49:16;;;;;;;11.93;6.78;;;10.60;56.70;;;;;;4979023;28;20059;-78
2022/01/20 12:51:44;;;;;;;10.88;6.70;;;10.30;57.00;;;;;;4979352;28;20030;-80
2022/01/20 12:54:26;;;;;;;10.25;6.15;;;10.10;57.60;;;;;;4976657;28;20031;-93
2022/01/20 12:57:00;;;;;;;11.68;6.32;;;10.40;57.30;;;;;;4975734;28;20176;-90
2022/01/20 12:59:36;;;;;;;9.90;5.75;;;10.70;56.60;;;;;;4977440;28;20027;-79
2022/01/20 13:02:05;;;;;;;9.18;6.00;;;10.50;56.20;;;;;;4977739;28;20567;-92
2022/01/20 13:04:33;;;;;;;10.32;5.85;;;10.40;56.90;;;;;;4977491;28;20109;-78
2022/01/20 13:07:02;;;;;;;67.60;28.98;;;10.80;56.10;;;;;;4978561;28;20154;-78
2022/01/20 13:09:46;;;;;;;14.52;8.20;;;10.60;56.20;;;;;;4975671;28;20106;-78
2022/01/20 13:12:14;;;;;;;9.52;5.93;;;10.50;56.20;;;;;;4974409;28;20038;-94
2022/01/20 13:14:51;;;;;;;10.55;6.20;;;10.30;56.40;;;;;;4974486;28;20019;-79
2022/01/20 13:17:27;;;;;;;11.00;5.80;;;10.60;56.30;;;;;;4973703;28;20030;-79
2022/01/20 13:19:55;;;;;;;9.65;5.10;;;10.90;55.70;;;;;;4973886;28;20113;-80
2022/01/20 13:23:09;;;;;;;6.95;4.60;;;10.80;55.70;;;;;;4974897;28;20022;-77
2022/01/20 13:25:29;;;;;;;8.20;5.07;;;10.50;56.00;;;;;;4973342;28;20401;-80
2022/01/20 13:28:01;;;;;;;8.05;4.93;;;10.30;56.20;;;;;;4974849;28;20053;-80
2022/01/20 13:30:31;;;;;;;7.82;4.60;;;10.40;56.50;;;;;;4974771;28;20023;-79
2022/01/20 13:32:58;;;;;;;8.48;4.40;;;10.20;56.70;;;;;;4974222;28;20035;-79
2022/01/20 13:35:24;;;;;;;6.95;4.10;;;10.00;56.80;;;;;;4973650;28;20504;-86
2022/01/20 13:37:58;;;;;;;7.18;4.50;;;9.40;58.00;;;;;;4973723;28;20031;-87
2022/01/20 13:40:24;;;;;;;7.00;4.40;;;9.50;58.30;;;;;;4978063;28;20015;-91
2022/01/20 13:45:40;;;;;;;7.65;5.00;;;9.10;59.30;;;;;;4975858;28;20109;-90
2022/01/20 13:48:07;;;;;;;6.88;4.55;;;9.40;58.70;;;;;;4975430;28;20062;-82
2022/01/20 13:50:42;;;;;;;9.07;5.38;;;9.50;58.30;;;;;;4975198;28;20101;-91
2022/01/20 13:53:23;;;;;;;6.97;3.88;;;9.80;58.10;;;;;;4976135;28;20071;-83
2022/01/20 13:55:49;;;;;;;9.10;4.32;;;9.60;57.60;;;;;;4968568;28;20437;-87
2022/01/20 13:58:25;;;;;;;7.78;4.80;;;9.30;58.80;;;;;;4972783;28;20027;-79
2022/01/20 14:00:52;;;;;;;6.97;4.43;;;9.60;58.10;;;;;;4973197;28;20066;-79
2022/01/20 14:03:18;;;;;;;8.05;4.82;;;9.70;56.90;;;;;;4974158;28;20058;-80
2022/01/20 14:05:44;;;;;;;7.55;4.22;;;9.80;57.30;;;;;;4957037;28;20478;-82
2022/01/20 14:08:10;;;;;;;9.02;4.00;;;9.60;57.10;;;;;;4972692;28;20073;-82
2022/01/20 14:10:36;;;;;;;8.40;4.53;;;9.80;57.00;;;;;;4973297;28;20034;-86
2022/01/20 14:13:02;;;;;;;7.03;3.80;;;9.80;56.30;;;;;;4972463;28;20034;-80
2022/01/20 14:15:28;;;;;;;9.98;4.28;;;9.30;56.70;;;;;;4974072;28;20382;-82
2022/01/20 14:17:57;;;;;;;6.70;3.67;;;9.50;56.60;;;;;;4975123;28;20031;-81
2022/01/20 14:20:27;;;;;;;7.25;3.50;;;9.90;56.70;;;;;;4974857;28;20039;-81
2022/01/20 14:22:54;;;;;;;6.30;3.67;;;9.90;55.50;;;;;;4973067;28;20035;-81
2022/01/20 14:25:23;;;;;;;6.20;3.38;;;9.90;56.10;;;;;;4974378;28;20038;-78
2022/01/20 14:27:50;;;;;;;6.10;3.90;;;9.80;55.20;;;;;;4976435;28;20102;-83
2022/01/20 14:30:16;;;;;;;5.03;3.03;;;9.70;55.80;;;;;;4977794;28;20022;-87
2022/01/20 14:32:43;;;;;;;5.03;3.10;;;9.40;56.90;;;;;;4979618;28;20063;-82
2022/01/20 14:35:10;;;;;;;5.68;3.10;;;9.30;58.90;;;;;;4977437;28;20019;-87
2022/01/20 14:37:37;;;;;;;7.25;2.72;;;9.50;58.70;;;;;;4977839;28;20062;-83
2022/01/20 14:40:13;;;;;;;5.13;2.90;;;9.60;58.20;;;;;;4976696;28;20089;-81
2022/01/20 14:42:39;;;;;;;4.47;2.20;;;9.70;57.90;;;;;;4976419;28;20055;-79
2022/01/20 14:45:07;;;;;;;5.50;2.63;;;9.70;57.50;;;;;;4975944;28;20027;-88
2022/01/20 14:47:34;;;;;;;5.25;2.30;;;10.10;57.00;;;;;;4975883;28;20030;-81
2022/01/20 14:50:00;;;;;;;4.57;2.03;;;10.20;55.60;;;;;;4976035;28;20378;-88
2022/01/20 14:52:27;;;;;;;3.95;1.88;;;10.00;56.00;;;;;;4975565;28;20042;-79
2022/01/20 14:54:53;;;;;;;4.13;2.17;;;10.10;56.00;;;;;;4975678;28;20041;-78
2022/01/20 14:57:20;;;;;;;3.35;1.88;;;10.40;54.90;;;;;;4975553;28;20027;-79
2022/01/20 14:59:46;;;;;;;4.05;2.10;;;10.20;54.00;;;;;;4976701;28;20030;-78
2022/01/20 15:02:12;;;;;;;3.75;1.92;;;9.80;55.20;;;;;;4976350;28;20114;-91
2022/01/20 15:04:38;;;;;;;4.38;2.42;;;9.70;54.60;;;;;;4975870;28;20030;-79
2022/01/20 15:07:04;;;;;;;5.28;2.42;;;9.80;54.20;;;;;;4978257;28;20035;-79
2022/01/20 15:09:29;;;;;;;7.63;3.67;;;9.90;54.50;;;;;;4976948;28;20046;-89
2022/01/20 15:11:56;;;;;;;9.52;3.20;;;9.00;59.80;;;;;;4976108;28;20023;-82
2022/01/20 15:14:22;;;;;;;7.50;3.83;;;6.30;67.40;;;;;;4960979;28;20130;-89
2022/01/20 15:16:49;;;;;;;9.90;5.05;;;5.60;72.10;;;;;;4976981;28;20027;-83
2022/01/20 15:19:15;;;;;;;44.58;21.00;;;5.50;71.90;;;;;;4976389;28;20030;-85
2022/01/20 15:21:41;;;;;;;42.67;18.77;;;5.70;72.70;;;;;;4976496;28;20118;-81
2022/01/20 15:24:07;;;;;;;29.52;14.50;;;5.70;70.70;;;;;;4975816;28;20482;-87